Time;durP1;ratioP1;P1;durP2;ratioP2;P2;SDS_P1;SDS_P2;PMS_P1;PMS_P2;Temp;Humidity;BMP_temperature;BMP_pressure;BME280_temperature;BME280_humidity;BME280_pressure;Samples;Min_cycle;Max_cycle;Signal;HPM_P1;HPM_P2
2023/05/19 00:01:15;;;;;;;4.20;2.67;;;11.50;99.90;;;;;;5084682;28;20191;-71
2023/05/19 00:04:04;;;;;;;3.40;2.40;;;11.50;99.90;;;;;;5084449;28;20205;-70
2023/05/19 00:06:53;;;;;;;5.53;2.77;;;11.50;99.90;;;;;;5088825;28;20197;-71
2023/05/19 00:09:40;;;;;;;3.70;2.50;;;11.50;99.90;;;;;;5092238;28;20601;-70
2023/05/19 00:12:28;;;;;;;3.47;2.37;;;11.50;99.90;;;;;;5093328;28;20360;-73
2023/05/19 00:15:15;;;;;;;3.70;2.20;;;11.40;99.90;;;;;;5079375;28;20182;-70
2023/05/19 00:18:02;;;;;;;4.20;2.50;;;11.40;99.90;;;;;;5094013;28;20221;-73
2023/05/19 00:20:51;;;;;;;3.90;2.30;;;11.40;99.90;;;;;;5073650;28;20670;-71
2023/05/19 00:23:38;;;;;;;3.43;2.23;;;11.30;99.90;;;;;;5092532;28;20223;-71
2023/05/19 00:26:26;;;;;;;2.70;1.90;;;11.20;99.90;;;;;;5092178;28;20220;-74
2023/05/19 00:29:17;;;;;;;2.40;1.97;;;11.30;99.90;;;;;;5092259;28;20193;-71
2023/05/19 00:32:06;;;;;;;3.67;2.23;;;11.30;99.90;;;;;;5092285;28;20608;-70
2023/05/19 00:34:53;;;;;;;4.07;1.90;;;11.20;99.90;;;;;;5091899;28;20239;-73
2023/05/19 00:37:40;;;;;;;3.10;1.80;;;11.10;99.90;;;;;;5091923;28;20838;-69
2023/05/19 00:40:30;;;;;;;3.00;2.07;;;11.00;99.90;;;;;;5092165;28;20204;-71
2023/05/19 00:43:17;;;;;;;2.40;1.70;;;10.90;99.90;;;;;;5092062;28;20567;-70
2023/05/19 00:46:06;;;;;;;2.73;1.90;;;11.00;99.90;;;;;;5091212;28;20655;-71
2023/05/19 00:48:53;;;;;;;4.50;1.90;;;10.90;99.90;;;;;;5091445;28;20278;-69
2023/05/19 00:51:42;;;;;;;4.10;1.70;;;10.90;99.90;;;;;;5082541;28;20198;-71
2023/05/19 00:54:31;;;;;;;3.30;1.80;;;10.90;99.90;;;;;;5085875;28;20229;-74
2023/05/19 00:57:19;;;;;;;3.40;1.80;;;10.90;99.90;;;;;;5072542;28;20222;-73
2023/05/19 01:00:07;;;;;;;2.07;1.60;;;10.90;99.90;;;;;;5073135;28;20197;-71
2023/05/19 01:02:55;;;;;;;3.53;1.50;;;10.90;99.90;;;;;;5072620;28;20208;-71
2023/05/19 01:05:52;;;;;;;2.80;1.60;;;10.90;99.90;;;;;;5082902;28;20193;-71
2023/05/19 01:08:39;;;;;;;2.90;1.67;;;10.90;99.90;;;;;;5095759;28;20208;-73
2023/05/19 01:11:26;;;;;;;2.83;1.70;;;10.90;99.90;;;;;;5091079;28;20200;-71
2023/05/19 01:14:15;;;;;;;4.57;1.90;;;10.80;99.90;;;;;;5091277;28;20193;-72
2023/05/19 01:17:21;;;;;;;3.03;1.90;;;10.80;99.90;;;;;;5092754;28;22206;-70
2023/05/19 01:20:25;;;;;;;4.47;1.73;;;10.80;99.90;;;;;;5091015;28;20540;-71
2023/05/19 01:23:22;;;;;;;3.00;1.90;;;10.80;99.90;;;;;;5091670;28;20193;-71
2023/05/19 01:26:28;;;;;;;2.80;1.63;;;10.80;99.90;;;;;;5091589;28;20254;-73
2023/05/19 01:29:26;;;;;;;3.53;1.83;;;10.80;99.90;;;;;;5091732;28;20272;-72
2023/05/19 01:32:18;;;;;;;2.93;1.60;;;10.80;99.90;;;;;;5092005;28;20273;-71
2023/05/19 01:35:07;;;;;;;2.37;1.77;;;10.80;99.90;;;;;;5090486;28;20229;-73
2023/05/19 01:37:57;;;;;;;3.20;1.80;;;10.70;99.90;;;;;;5091596;28;20228;-72
2023/05/19 01:40:47;;;;;;;3.33;1.80;;;10.80;99.90;;;;;;5091200;28;20197;-71
2023/05/19 01:43:35;;;;;;;2.93;1.73;;;10.80;99.90;;;;;;5091299;28;20225;-74
2023/05/19 01:46:23;;;;;;;3.30;1.70;;;10.80;99.90;;;;;;5091281;28;20284;-72
2023/05/19 01:49:11;;;;;;;3.07;1.70;;;10.70;99.90;;;;;;5091708;28;20197;-72
2023/05/19 01:51:59;;;;;;;4.40;1.70;;;10.70;99.90;;;;;;5091090;28;20285;-74
2023/05/19 01:54:46;;;;;;;2.00;1.57;;;10.70;99.90;;;;;;5070911;28;20214;-70
2023/05/19 01:57:51;;;;;;;2.27;1.70;;;10.70;99.90;;;;;;5086302;28;20225;-71
2023/05/19 02:00:41;;;;;;;3.57;1.87;;;10.70;99.90;;;;;;5090905;28;20860;-71
2023/05/19 02:03:47;;;;;;;3.70;2.00;;;10.60;99.90;;;;;;5091053;28;20205;-72
2023/05/19 02:07:09;;;;;;;2.83;1.83;;;10.60;99.90;;;;;;5090249;28;20760;-72
2023/05/19 02:10:13;;;;;;;3.17;1.80;;;10.60;99.90;;;;;;5008247;28;20208;-73
2023/05/19 02:13:04;;;;;;;3.60;1.93;;;10.70;99.90;;;;;;5008227;28;20212;-71
2023/05/19 02:15:54;;;;;;;3.47;2.00;;;10.60;99.90;;;;;;5008724;28;20207;-73
2023/05/19 02:18:45;;;;;;;3.43;1.90;;;10.60;99.90;;;;;;5008813;28;20279;-73
2023/05/19 02:21:32;;;;;;;3.00;2.00;;;10.70;99.90;;;;;;5007256;28;20200;-74
2023/05/19 02:24:21;;;;;;;4.30;1.83;;;10.70;99.90;;;;;;5008347;28;20204;-72
2023/05/19 02:27:08;;;;;;;3.53;2.03;;;10.70;99.90;;;;;;5008468;28;20738;-74
2023/05/19 02:29:56;;;;;;;3.17;2.00;;;10.80;99.90;;;;;;5008764;28;20229;-75
2023/05/19 02:32:46;;;;;;;4.13;2.13;;;10.70;99.90;;;;;;5008549;28;20204;-71
2023/05/19 02:35:33;;;;;;;2.73;1.90;;;10.70;99.90;;;;;;5008099;28;20307;-72
2023/05/19 02:38:21;;;;;;;2.47;1.77;;;10.80;99.90;;;;;;4995588;28;20302;-72
2023/05/19 02:41:08;;;;;;;2.73;1.80;;;10.80;99.90;;;;;;5008836;28;20196;-72
2023/05/19 02:43:55;;;;;;;3.57;2.20;;;10.90;99.90;;;;;;5009125;28;20204;-75
2023/05/19 02:46:43;;;;;;;4.80;2.43;;;10.90;99.90;;;;;;5044688;28;20655;-71
2023/05/19 02:49:34;;;;;;;3.97;2.33;;;10.80;99.90;;;;;;5089858;28;20224;-74
2023/05/19 02:52:22;;;;;;;3.80;2.27;;;10.80;99.90;;;;;;5091369;28;20202;-78
2023/05/19 02:55:15;;;;;;;3.77;2.57;;;10.90;99.90;;;;;;5090127;28;20292;-72
2023/05/19 02:58:03;;;;;;;3.60;2.40;;;10.90;99.90;;;;;;5086555;28;20321;-73
2023/05/19 03:00:50;;;;;;;4.40;2.50;;;10.90;99.90;;;;;;5069123;28;20205;-72
2023/05/19 03:03:37;;;;;;;5.90;2.60;;;10.90;99.90;;;;;;5069807;28;20631;-73
2023/05/19 03:06:24;;;;;;;6.63;2.60;;;10.90;99.90;;;;;;5069326;28;20223;-74
2023/05/19 03:09:13;;;;;;;5.10;2.73;;;10.90;99.90;;;;;;5069738;28;20793;-73
2023/05/19 03:12:02;;;;;;;4.83;2.70;;;10.90;99.90;;;;;;5069575;28;20198;-72
2023/05/19 03:14:50;;;;;;;3.63;2.70;;;10.90;99.90;;;;;;5068980;28;20661;-73
2023/05/19 03:17:38;;;;;;;3.20;2.50;;;10.90;99.90;;;;;;5069248;28;20252;-73
2023/05/19 03:20:26;;;;;;;4.20;2.70;;;10.90;99.90;;;;;;5069849;28;20552;-73
2023/05/19 03:23:13;;;;;;;4.40;2.80;;;10.90;99.90;;;;;;5067860;28;20198;-71
2023/05/19 03:26:03;;;;;;;4.20;2.80;;;10.90;99.90;;;;;;5069295;28;20644;-73
2023/05/19 03:28:50;;;;;;;4.73;2.97;;;10.80;99.90;;;;;;5070030;28;20206;-77
2023/05/19 03:31:37;;;;;;;6.13;3.13;;;10.80;99.90;;;;;;5068810;28;20616;-72
2023/05/19 03:34:25;;;;;;;4.57;2.63;;;10.80;99.90;;;;;;5068833;28;20198;-79
2023/05/19 03:37:12;;;;;;;4.90;2.97;;;10.70;99.90;;;;;;5069535;28;20182;-71
2023/05/19 03:39:59;;;;;;;4.20;2.83;;;10.70;99.90;;;;;;5069438;28;20194;-71
2023/05/19 03:42:47;;;;;;;4.93;3.10;;;10.70;99.90;;;;;;5070108;28;20194;-79
2023/05/19 03:45:34;;;;;;;4.50;3.00;;;10.70;99.90;;;;;;5068736;28;20190;-73
2023/05/19 03:48:21;;;;;;;5.93;3.10;;;10.80;99.90;;;;;;5068977;28;20205;-71
2023/05/19 03:51:08;;;;;;;5.30;3.20;;;10.80;99.90;;;;;;5068593;28;20201;-73
2023/05/19 03:53:56;;;;;;;4.50;3.07;;;10.70;99.90;;;;;;5068445;28;20202;-78
2023/05/19 03:56:43;;;;;;;6.07;3.27;;;10.60;99.90;;;;;;5068720;28;20273;-72
2023/05/19 03:59:30;;;;;;;6.10;3.40;;;10.70;99.90;;;;;;5067927;28;20224;-70
2023/05/19 04:02:17;;;;;;;7.97;3.40;;;10.70;99.90;;;;;;5069257;28;20205;-72
2023/05/19 04:05:06;;;;;;;5.27;3.60;;;10.70;99.90;;;;;;5068247;28;20202;-72
2023/05/19 04:07:55;;;;;;;6.60;3.70;;;10.70;99.90;;;;;;5068941;28;20277;-71
2023/05/19 04:10:43;;;;;;;5.90;3.97;;;10.80;99.90;;;;;;5069117;28;20198;-76
2023/05/19 04:13:33;;;;;;;5.77;3.83;;;10.70;99.90;;;;;;5069016;28;20227;-72
2023/05/19 04:16:21;;;;;;;6.40;4.00;;;10.80;99.90;;;;;;5068926;28;20533;-71
2023/05/19 04:19:08;;;;;;;6.13;4.10;;;10.60;99.90;;;;;;5054606;28;20214;-71
2023/05/19 04:21:55;;;;;;;5.23;3.93;;;10.70;99.90;;;;;;5068393;28;20579;-72
2023/05/19 04:24:43;;;;;;;5.93;4.20;;;10.70;99.90;;;;;;5067827;28;20261;-72
2023/05/19 04:27:30;;;;;;;5.77;4.27;;;10.70;99.90;;;;;;5068078;28;20250;-72
2023/05/19 04:30:21;;;;;;;6.67;4.30;;;10.70;99.90;;;;;;5068944;28;20197;-73
2023/05/19 04:33:08;;;;;;;6.70;4.50;;;10.70;99.90;;;;;;5067796;28;20198;-71
2023/05/19 04:35:57;;;;;;;5.60;4.43;;;10.80;99.90;;;;;;5068353;28;20569;-70
2023/05/19 04:38:45;;;;;;;6.47;4.30;;;10.80;99.90;;;;;;5060603;28;20222;-72
2023/05/19 04:41:33;;;;;;;6.73;4.70;;;10.80;99.90;;;;;;5069356;28;20194;-74
2023/05/19 04:44:20;;;;;;;8.13;4.70;;;10.80;99.90;;;;;;5071246;28;20198;-71
2023/05/19 04:47:08;;;;;;;7.03;4.60;;;10.90;99.90;;;;;;5072729;28;20699;-72
2023/05/19 04:49:56;;;;;;;6.03;4.40;;;10.90;99.90;;;;;;5072197;28;20186;-71
2023/05/19 04:52:46;;;;;;;4.67;3.90;;;10.90;99.90;;;;;;5072162;28;20281;-72
2023/05/19 04:55:33;;;;;;;7.07;4.20;;;11.00;99.90;;;;;;5071964;28;20214;-72
2023/05/19 04:58:24;;;;;;;5.60;3.77;;;11.00;99.90;;;;;;5071565;28;20222;-71
2023/05/19 05:01:12;;;;;;;7.87;3.63;;;11.00;99.90;;;;;;5072503;28;20243;-72
2023/05/19 05:04:01;;;;;;;6.07;3.40;;;11.00;99.90;;;;;;5071278;28;20271;-71
2023/05/19 05:06:49;;;;;;;5.10;3.60;;;11.10;99.90;;;;;;5071246;28;20198;-73
2023/05/19 05:09:36;;;;;;;5.57;3.30;;;11.00;99.90;;;;;;5072369;28;20213;-72
2023/05/19 05:12:26;;;;;;;5.10;3.60;;;10.90;99.90;;;;;;5069978;28;20201;-73
2023/05/19 05:15:14;;;;;;;6.37;3.53;;;10.90;99.90;;;;;;5072032;28;20204;-74
2023/05/19 05:18:03;;;;;;;4.23;2.80;;;10.90;99.90;;;;;;5071722;28;20214;-75
2023/05/19 05:20:52;;;;;;;5.33;3.07;;;10.90;99.90;;;;;;5057172;28;20651;-70
2023/05/19 05:23:39;;;;;;;6.80;3.33;;;10.80;99.90;;;;;;5079374;28;20575;-72
2023/05/19 05:26:32;;;;;;;4.37;2.73;;;10.90;99.90;;;;;;5090794;28;20197;-71
2023/05/19 05:29:19;;;;;;;4.10;2.93;;;10.80;99.90;;;;;;5090244;28;20221;-71
2023/05/19 05:32:07;;;;;;;6.27;3.30;;;10.90;99.90;;;;;;5091203;28;20205;-72
2023/05/19 05:34:54;;;;;;;4.30;2.73;;;10.90;99.90;;;;;;5090684;28;20230;-70
2023/05/19 05:37:41;;;;;;;3.57;2.67;;;10.80;99.90;;;;;;5073159;28;20208;-72
2023/05/19 05:40:28;;;;;;;4.23;2.90;;;10.90;99.90;;;;;;5072213;28;20197;-73
2023/05/19 05:43:16;;;;;;;3.90;2.80;;;11.00;99.90;;;;;;5071347;28;20205;-73
2023/05/19 05:46:06;;;;;;;5.50;3.00;;;11.10;99.90;;;;;;5076100;28;20198;-72
2023/05/19 05:48:54;;;;;;;5.17;3.10;;;11.00;99.90;;;;;;5074706;28;20220;-73
2023/05/19 05:51:41;;;;;;;3.23;2.60;;;11.10;99.90;;;;;;5071026;28;20195;-73
2023/05/19 05:54:40;;;;;;;4.73;2.90;;;11.10;99.90;;;;;;5066467;28;20824;-73
2023/05/19 05:57:29;;;;;;;5.07;3.07;;;11.20;99.90;;;;;;5089970;28;20196;-75
2023/05/19 06:00:17;;;;;;;3.90;2.70;;;11.20;99.90;;;;;;5081406;28;20209;-72
2023/05/19 06:03:04;;;;;;;5.30;3.20;;;11.10;99.90;;;;;;5070263;28;20931;-72
2023/05/19 06:05:52;;;;;;;3.70;2.70;;;11.10;99.90;;;;;;5071126;28;20560;-73
2023/05/19 06:08:39;;;;;;;4.60;2.87;;;11.10;99.90;;;;;;5070733;28;20204;-71
2023/05/19 06:11:27;;;;;;;3.93;2.80;;;11.10;99.90;;;;;;5073426;28;20206;-74
2023/05/19 06:14:14;;;;;;;5.07;2.77;;;11.00;99.90;;;;;;5076486;28;20252;-71
2023/05/19 06:17:02;;;;;;;4.83;2.97;;;11.00;99.90;;;;;;5071040;28;20327;-74
2023/05/19 06:19:49;;;;;;;4.50;3.00;;;11.10;99.90;;;;;;5077733;28;20522;-72
2023/05/19 06:22:36;;;;;;;5.10;3.10;;;11.20;99.90;;;;;;5092166;28;20189;-72
2023/05/19 06:25:24;;;;;;;4.30;2.93;;;11.20;99.90;;;;;;5084387;28;20200;-72
2023/05/19 06:28:11;;;;;;;6.77;2.93;;;11.20;99.90;;;;;;5071739;28;20247;-72
2023/05/19 06:30:59;;;;;;;5.07;2.90;;;11.20;99.90;;;;;;5070579;28;20539;-73
2023/05/19 06:33:46;;;;;;;7.27;3.43;;;11.30;99.90;;;;;;5069976;28;20198;-75
2023/05/19 06:36:34;;;;;;;4.90;3.30;;;11.30;99.90;;;;;;5070182;28;20230;-75
2023/05/19 06:39:21;;;;;;;4.17;2.60;;;11.20;99.90;;;;;;5070396;28;20773;-75
2023/05/19 06:42:09;;;;;;;4.03;2.83;;;11.20;99.90;;;;;;5055534;28;20237;-76
2023/05/19 06:44:56;;;;;;;3.87;3.00;;;11.30;99.90;;;;;;5068817;28;20281;-74
2023/05/19 06:47:43;;;;;;;3.40;2.83;;;11.30;99.90;;;;;;5069784;28;20648;-74
2023/05/19 06:50:32;;;;;;;6.33;3.07;;;11.30;99.90;;;;;;5070433;28;20194;-73
2023/05/19 06:53:21;;;;;;;5.70;2.93;;;11.30;99.90;;;;;;5086684;28;20197;-73
2023/05/19 06:56:08;;;;;;;5.73;2.60;;;11.40;99.90;;;;;;5093802;28;20209;-74
2023/05/19 06:58:55;;;;;;;5.03;3.03;;;11.30;99.90;;;;;;5089662;28;20250;-75
2023/05/19 07:01:43;;;;;;;4.10;2.77;;;11.30;99.90;;;;;;5089651;28;20311;-74
2023/05/19 07:04:30;;;;;;;8.00;3.07;;;11.50;99.90;;;;;;5089621;28;20205;-75
2023/05/19 07:07:17;;;;;;;4.87;3.30;;;11.50;99.90;;;;;;5089462;28;20257;-74
2023/05/19 07:10:05;;;;;;;6.13;3.30;;;11.50;99.90;;;;;;5090485;28;20211;-74
2023/05/19 07:12:53;;;;;;;4.90;3.00;;;11.50;99.90;;;;;;5091309;28;20256;-75
2023/05/19 07:15:40;;;;;;;5.47;3.27;;;11.50;99.90;;;;;;5089810;28;20201;-76
2023/05/19 07:18:30;;;;;;;6.77;3.30;;;11.50;99.90;;;;;;5088288;28;20189;-74
2023/05/19 07:21:18;;;;;;;8.00;3.30;;;11.60;99.90;;;;;;5089557;28;20206;-74
2023/05/19 07:24:05;;;;;;;5.40;3.20;;;11.70;99.90;;;;;;5089133;28;20209;-75
2023/05/19 07:26:53;;;;;;;6.00;3.30;;;11.80;99.90;;;;;;5089301;28;20224;-75
2023/05/19 07:29:40;;;;;;;4.93;2.90;;;11.90;99.90;;;;;;5089526;28;20209;-77
2023/05/19 07:32:27;;;;;;;5.27;3.07;;;11.90;99.90;;;;;;5090715;28;20185;-73
2023/05/19 07:35:15;;;;;;;8.10;3.47;;;11.90;99.90;;;;;;5088671;28;20233;-76
2023/05/19 07:38:02;;;;;;;6.83;3.13;;;12.00;99.90;;;;;;5088948;28;20189;-75
2023/05/19 07:40:50;;;;;;;4.50;3.50;;;12.00;99.90;;;;;;5088624;28;20211;-74
2023/05/19 07:43:37;;;;;;;10.57;3.50;;;11.90;99.90;;;;;;5073686;28;20467;-75
2023/05/19 07:46:25;;;;;;;4.57;2.90;;;12.00;99.90;;;;;;5088614;28;20237;-75
2023/05/19 07:49:12;;;;;;;9.07;3.30;;;12.10;99.90;;;;;;5089872;28;20715;-75
2023/05/19 07:52:00;;;;;;;8.53;3.00;;;12.00;99.90;;;;;;5088630;28;20280;-75
2023/05/19 07:54:47;;;;;;;5.37;2.97;;;12.10;99.90;;;;;;5087825;28;20209;-75
2023/05/19 07:57:34;;;;;;;6.37;3.20;;;12.20;99.90;;;;;;5089704;28;20265;-74
2023/05/19 08:00:22;;;;;;;7.73;3.50;;;12.20;99.90;;;;;;5089132;28;20220;-75
2023/05/19 08:03:09;;;;;;;5.13;3.00;;;12.20;99.90;;;;;;5089604;28;20190;-76
2023/05/19 08:05:57;;;;;;;7.03;3.43;;;12.10;99.90;;;;;;5073633;28;20198;-76
2023/05/19 08:08:45;;;;;;;6.47;3.23;;;12.20;99.90;;;;;;5088224;28;20229;-75
2023/05/19 08:11:32;;;;;;;7.27;3.53;;;12.20;99.90;;;;;;5073994;28;20639;-75
2023/05/19 08:14:21;;;;;;;6.07;3.43;;;12.10;99.90;;;;;;5088512;28;20202;-75
2023/05/19 08:17:09;;;;;;;12.43;3.90;;;12.10;99.90;;;;;;5088743;28;20281;-75
2023/05/19 08:19:56;;;;;;;9.13;3.60;;;12.30;99.90;;;;;;5093093;28;20217;-74
2023/05/19 08:22:43;;;;;;;7.33;3.40;;;12.20;99.90;;;;;;5092248;28;20197;-76
2023/05/19 08:25:31;;;;;;;9.70;3.60;;;12.20;99.90;;;;;;5093635;28;20197;-75
2023/05/19 08:28:18;;;;;;;8.90;3.97;;;12.20;99.90;;;;;;5093002;28;20622;-75
2023/05/19 08:31:05;;;;;;;9.80;4.20;;;12.10;99.90;;;;;;5092743;28;20238;-75
2023/05/19 08:33:53;;;;;;;8.30;3.67;;;12.20;99.90;;;;;;5092561;28;20611;-74
2023/05/19 08:36:40;;;;;;;7.60;3.87;;;12.30;99.90;;;;;;5091899;28;20239;-75
2023/05/19 08:39:28;;;;;;;7.87;3.70;;;12.40;99.90;;;;;;5093424;28;20224;-75
2023/05/19 08:42:15;;;;;;;9.97;3.80;;;12.40;99.90;;;;;;5092405;28;20193;-74
2023/05/19 08:45:02;;;;;;;9.30;3.93;;;12.40;99.90;;;;;;5091983;28;20189;-75
2023/05/19 08:47:50;;;;;;;10.03;4.20;;;12.40;99.90;;;;;;5093082;28;20229;-75
2023/05/19 08:50:42;;;;;;;12.93;4.57;;;12.40;99.90;;;;;;5092295;28;20440;-74
2023/05/19 08:53:39;;;;;;;6.83;4.07;;;12.50;99.90;;;;;;5092923;28;20710;-75
2023/05/19 08:56:27;;;;;;;8.30;4.03;;;12.40;99.90;;;;;;5092079;28;20300;-75
2023/05/19 08:59:16;;;;;;;11.20;3.97;;;12.40;99.90;;;;;;5091321;28;20299;-75
2023/05/19 09:02:04;;;;;;;9.03;3.90;;;12.60;99.90;;;;;;5091596;28;20604;-75
2023/05/19 09:04:52;;;;;;;8.63;4.10;;;12.70;99.90;;;;;;5091713;28;20638;-75
2023/05/19 09:07:42;;;;;;;8.13;3.50;;;12.70;99.90;;;;;;5090889;28;20213;-75
2023/05/19 09:10:29;;;;;;;8.53;3.90;;;12.80;99.90;;;;;;5091158;28;20190;-76
2023/05/19 09:13:16;;;;;;;9.07;3.97;;;12.80;99.90;;;;;;5091687;28;20287;-74
2023/05/19 09:16:04;;;;;;;9.67;4.17;;;12.70;99.90;;;;;;5091394;28;20204;-73
2023/05/19 09:18:57;;;;;;;7.50;3.90;;;12.80;99.90;;;;;;5091364;28;20204;-74
2023/05/19 09:21:48;;;;;;;8.90;3.70;;;12.80;99.90;;;;;;5091733;28;20304;-75
2023/05/19 09:24:39;;;;;;;11.43;4.10;;;13.00;99.90;;;;;;5090979;28;20185;-75
2023/05/19 09:27:32;;;;;;;11.37;4.63;;;13.10;99.90;;;;;;5091786;28;20200;-74
2023/05/19 09:30:20;;;;;;;10.30;4.23;;;13.10;99.90;;;;;;5091257;28;20615;-75
2023/05/19 09:33:08;;;;;;;8.43;3.97;;;13.20;99.90;;;;;;5091161;28;20566;-75
2023/05/19 09:35:56;;;;;;;7.73;4.20;;;13.20;99.90;;;;;;5090553;28;20245;-75
2023/05/19 09:38:44;;;;;;;9.50;4.13;;;13.30;99.90;;;;;;5091748;28;20289;-75
2023/05/19 09:41:32;;;;;;;10.73;4.20;;;13.30;99.90;;;;;;5090916;28;20201;-74
2023/05/19 09:44:19;;;;;;;12.17;4.10;;;13.40;99.90;;;;;;5091483;28;20199;-74
2023/05/19 09:47:10;;;;;;;9.67;4.07;;;13.40;99.90;;;;;;5091705;28;20258;-75
2023/05/19 09:49:57;;;;;;;8.50;4.00;;;13.40;99.90;;;;;;5091608;28;20199;-74
2023/05/19 09:52:45;;;;;;;10.50;3.90;;;13.40;99.90;;;;;;5091756;28;20657;-75
2023/05/19 09:55:33;;;;;;;14.90;5.07;;;13.60;99.90;;;;;;5089848;28;20213;-74
2023/05/19 09:58:21;;;;;;;13.23;5.17;;;13.60;99.90;;;;;;5090731;28;20197;-74
2023/05/19 10:01:08;;;;;;;7.90;3.93;;;13.60;99.90;;;;;;5090496;28;20308;-75
2023/05/19 10:04:12;;;;;;;;;;;;;;;;;;;;;
2023/05/19 10:07:04;;;;;;;12.20;4.60;;;13.60;99.90;;;;;;5090812;28;20280;-75
2023/05/19 10:09:53;;;;;;;9.47;4.07;;;13.60;99.90;;;;;;5091616;28;20196;-75
2023/05/19 10:12:42;;;;;;;7.83;4.03;;;13.70;99.90;;;;;;5075907;28;20329;-74
2023/05/19 10:15:31;;;;;;;9.20;4.40;;;13.80;99.90;;;;;;5090684;28;20213;-74
2023/05/19 10:18:26;;;;;;;10.67;4.30;;;13.90;99.90;;;;;;5090509;28;20189;-73
2023/05/19 10:21:13;;;;;;;11.93;4.37;;;14.10;99.90;;;;;;5090723;28;20220;-74
2023/05/19 10:24:01;;;;;;;10.47;4.43;;;14.20;99.90;;;;;;5090170;28;20223;-76
2023/05/19 10:26:57;;;;;;;11.73;4.50;;;14.30;99.90;;;;;;5076262;28;20280;-74
2023/05/19 10:29:49;;;;;;;11.70;4.57;;;14.50;99.90;;;;;;5089866;28;20197;-75
2023/05/19 10:32:39;;;;;;;9.77;4.20;;;14.60;99.90;;;;;;5090212;28;20564;-72
2023/05/19 10:36:07;;;;;;;12.50;4.57;;;14.80;99.90;;;;;;5090693;28;20354;-73
2023/05/19 10:39:12;;;;;;;11.17;4.53;;;15.10;99.90;;;;;;5088847;28;20208;-75
2023/05/19 10:42:05;;;;;;;11.57;4.40;;;15.10;99.90;;;;;;5089512;28;20193;-74
2023/05/19 10:45:09;;;;;;;15.63;4.70;;;15.20;99.90;;;;;;5089621;28;20186;-75
2023/05/19 10:47:57;;;;;;;12.03;4.63;;;15.10;99.90;;;;;;5075151;28;20193;-75
2023/05/19 10:50:47;;;;;;;13.03;4.37;;;15.00;99.90;;;;;;5090376;28;20292;-73
2023/05/19 10:53:36;;;;;;;11.40;4.63;;;15.00;99.90;;;;;;5090491;28;20205;-74
2023/05/19 10:56:32;;;;;;;13.23;4.80;;;14.90;99.90;;;;;;5089107;28;20723;-75
2023/05/19 10:59:33;;;;;;;12.47;4.90;;;14.80;99.90;;;;;;5089452;28;20201;-74
2023/05/19 11:02:41;;;;;;;11.73;4.87;;;14.90;99.90;;;;;;5089821;28;20703;-75
2023/05/19 11:05:29;;;;;;;10.00;4.07;;;15.00;99.90;;;;;;5089732;28;20194;-74
2023/05/19 11:08:32;;;;;;;10.57;4.87;;;14.90;99.90;;;;;;5088571;28;20193;-74
2023/05/19 11:11:21;;;;;;;11.33;4.60;;;14.90;99.90;;;;;;5090616;28;20208;-76
2023/05/19 11:14:13;;;;;;;12.10;4.57;;;14.90;99.90;;;;;;5089355;28;20209;-74
2023/05/19 11:17:02;;;;;;;11.20;4.63;;;15.00;99.90;;;;;;5090021;28;20273;-74
2023/05/19 11:19:58;;;;;;;12.57;4.67;;;15.00;99.90;;;;;;5089894;28;20213;-76
2023/05/19 11:23:09;;;;;;;14.77;4.67;;;15.00;99.90;;;;;;5088452;28;20250;-75
2023/05/19 11:26:01;;;;;;;11.30;4.37;;;14.80;99.90;;;;;;5089724;28;20200;-74
2023/05/19 11:28:48;;;;;;;12.77;4.40;;;15.00;99.90;;;;;;5089578;28;20186;-74
2023/05/19 11:31:38;;;;;;;11.40;4.93;;;15.00;99.90;;;;;;5088628;28;20204;-75
2023/05/19 11:34:26;;;;;;;9.17;4.40;;;15.00;99.90;;;;;;5089217;28;20201;-74
2023/05/19 11:37:13;;;;;;;10.43;4.33;;;15.10;99.90;;;;;;5088434;28;20517;-74
2023/05/19 11:40:03;;;;;;;12.67;4.43;;;15.10;99.90;;;;;;5089248;28;20213;-75
2023/05/19 11:42:51;;;;;;;11.40;4.53;;;15.20;99.90;;;;;;5089856;28;20718;-74
2023/05/19 11:45:38;;;;;;;10.77;4.03;;;15.20;99.90;;;;;;5089050;28;20276;-75
2023/05/19 11:48:25;;;;;;;11.17;4.80;;;15.20;99.90;;;;;;5089273;28;20197;-75
2023/05/19 11:51:13;;;;;;;9.63;4.50;;;15.20;99.90;;;;;;5089274;28;20223;-74
2023/05/19 11:54:02;;;;;;;12.97;5.10;;;15.20;99.90;;;;;;5093839;28;20204;-74
2023/05/19 11:56:52;;;;;;;9.60;4.37;;;15.30;99.90;;;;;;5093060;28;20611;-75
2023/05/19 11:59:44;;;;;;;11.40;4.57;;;15.30;99.90;;;;;;5093708;28;20229;-75
2023/05/19 12:02:31;;;;;;;8.77;4.10;;;15.30;99.90;;;;;;5092735;28;20335;-75
2023/05/19 12:05:24;;;;;;;9.00;4.60;;;15.20;99.90;;;;;;5093951;28;20193;-75
2023/05/19 12:08:11;;;;;;;10.60;4.60;;;15.40;99.90;;;;;;5093052;28;20686;-74
2023/05/19 12:10:59;;;;;;;11.80;4.90;;;15.50;99.90;;;;;;5092611;28;20205;-75
2023/05/19 12:13:47;;;;;;;9.43;4.17;;;15.60;99.90;;;;;;5092778;28;20189;-75
2023/05/19 12:16:35;;;;;;;11.87;4.53;;;15.70;99.90;;;;;;5093508;28;20845;-76
2023/05/19 12:19:24;;;;;;;10.03;4.50;;;15.60;99.90;;;;;;5093479;28;20637;-75
2023/05/19 12:22:15;;;;;;;8.47;4.07;;;15.50;99.90;;;;;;5092886;28;20224;-75
2023/05/19 12:25:04;;;;;;;8.43;4.37;;;15.30;99.90;;;;;;5092775;28;20224;-74
2023/05/19 12:27:55;;;;;;;10.70;4.03;;;15.40;99.90;;;;;;5093457;28;20202;-74
2023/05/19 12:30:48;;;;;;;8.43;4.40;;;15.40;99.90;;;;;;5093248;28;20198;-75
2023/05/19 12:33:35;;;;;;;10.40;4.67;;;15.30;99.90;;;;;;5092601;28;20194;-74
2023/05/19 12:36:24;;;;;;;7.53;4.47;;;15.40;99.90;;;;;;5091650;28;20728;-75
2023/05/19 12:39:11;;;;;;;8.97;4.70;;;15.60;99.90;;;;;;5091820;28;20221;-74
2023/05/19 12:42:03;;;;;;;9.00;5.07;;;15.50;99.90;;;;;;5092524;28;20671;-74
2023/05/19 12:44:51;;;;;;;10.13;4.70;;;15.60;99.90;;;;;;5092744;28;20238;-75
2023/05/19 12:47:38;;;;;;;9.97;4.50;;;15.70;99.90;;;;;;5092341;28;20201;-77
2023/05/19 12:50:30;;;;;;;7.70;4.40;;;15.70;99.90;;;;;;5092269;28;20407;-76
2023/05/19 12:53:18;;;;;;;9.10;4.13;;;15.70;99.90;;;;;;5093412;28;20279;-75
2023/05/19 12:56:13;;;;;;;9.50;4.30;;;15.70;99.90;;;;;;5090285;28;20217;-74
2023/05/19 12:59:00;;;;;;;7.70;4.30;;;15.70;99.90;;;;;;5089167;28;20227;-74
2023/05/19 13:01:58;;;;;;;9.60;4.20;;;15.70;99.90;;;;;;5090444;28;20247;-75
2023/05/19 13:04:47;;;;;;;7.40;3.80;;;15.70;99.90;;;;;;5089688;28;20209;-71
2023/05/19 13:07:34;;;;;;;9.43;4.40;;;15.70;99.90;;;;;;5091162;28;20610;-70
2023/05/19 13:10:22;;;;;;;7.67;3.83;;;15.70;99.90;;;;;;5090831;28;20284;-71
2023/05/19 13:13:09;;;;;;;7.90;4.50;;;15.80;99.90;;;;;;5077571;28;20601;-71
2023/05/19 13:15:57;;;;;;;8.40;4.40;;;15.70;99.90;;;;;;5091822;28;20212;-71
2023/05/19 13:18:47;;;;;;;9.30;4.53;;;15.70;99.90;;;;;;5092280;28;20276;-71
2023/05/19 13:21:34;;;;;;;10.60;4.47;;;15.50;99.90;;;;;;5091740;28;20221;-71
2023/05/19 13:24:21;;;;;;;9.93;4.13;;;15.40;99.90;;;;;;5091455;28;20190;-71
2023/05/19 13:27:09;;;;;;;9.47;4.80;;;15.40;99.90;;;;;;5090706;28;20255;-71
2023/05/19 13:29:56;;;;;;;7.23;4.37;;;15.40;99.90;;;;;;5077340;28;20193;-74
2023/05/19 13:32:45;;;;;;;6.47;4.17;;;15.30;99.90;;;;;;5095391;28;20192;-69
2023/05/19 13:35:35;;;;;;;9.03;4.67;;;15.30;99.90;;;;;;5096426;28;20229;-71
2023/05/19 13:38:24;;;;;;;7.00;4.30;;;15.30;99.90;;;;;;5070407;28;20663;-71
2023/05/19 13:41:11;;;;;;;8.77;3.93;;;15.30;99.90;;;;;;5071640;28;20229;-71
2023/05/19 13:44:02;;;;;;;7.60;4.50;;;15.20;99.90;;;;;;5069823;28;20197;-72
2023/05/19 13:46:49;;;;;;;8.33;4.53;;;15.20;99.90;;;;;;5071737;28;20300;-71
2023/05/19 13:49:38;;;;;;;9.00;4.70;;;15.20;99.90;;;;;;5072304;28;20186;-72
2023/05/19 13:52:25;;;;;;;10.17;4.43;;;15.10;99.90;;;;;;5070089;28;20666;-71
2023/05/19 13:55:16;;;;;;;7.87;4.30;;;15.00;99.90;;;;;;5069798;28;20218;-72
2023/05/19 13:58:03;;;;;;;10.10;4.70;;;15.00;99.90;;;;;;5069736;28;20190;-71
2023/05/19 14:00:53;;;;;;;8.17;4.37;;;15.10;99.90;;;;;;5070969;28;20218;-71
2023/05/19 14:03:40;;;;;;;9.60;4.40;;;15.20;99.90;;;;;;5071357;28;20794;-71
2023/05/19 14:06:28;;;;;;;11.23;4.67;;;15.20;99.90;;;;;;5069490;28;20264;-73
2023/05/19 14:09:15;;;;;;;11.17;4.97;;;15.20;99.90;;;;;;5070318;28;20281;-69
2023/05/19 14:12:04;;;;;;;9.20;4.73;;;15.20;99.90;;;;;;5070350;28;20277;-71
2023/05/19 14:14:51;;;;;;;10.20;4.50;;;15.20;99.90;;;;;;5069998;28;20205;-71
2023/05/19 14:17:38;;;;;;;8.57;4.47;;;15.20;99.90;;;;;;5069794;28;20200;-72
2023/05/19 14:20:26;;;;;;;8.47;4.57;;;15.20;99.90;;;;;;5056074;28;20629;-72
2023/05/19 14:23:18;;;;;;;7.53;4.50;;;15.20;99.90;;;;;;5068962;28;20288;-70
2023/05/19 14:26:06;;;;;;;8.60;4.73;;;15.30;99.90;;;;;;5070248;28;20221;-72
2023/05/19 14:28:53;;;;;;;8.23;4.47;;;15.40;99.90;;;;;;5070640;28;20205;-71
2023/05/19 14:31:40;;;;;;;10.53;4.80;;;15.40;99.90;;;;;;5069416;28;20217;-70
2023/05/19 14:34:27;;;;;;;14.37;4.83;;;15.30;99.90;;;;;;5069975;28;20198;-72
2023/05/19 14:37:15;;;;;;;7.60;4.50;;;15.20;99.90;;;;;;5070147;28;20198;-72
2023/05/19 14:40:03;;;;;;;8.57;4.50;;;15.20;99.90;;;;;;5069941;28;20210;-72